sensor_id;sensor_type;location;lat;lon;timestamp;P1;durP1;ratioP1;P2;durP2;ratioP2
1074;SDS011;526;51.392;12.448;2023-04-15T00:01:50;2.00;;;1.90;;
1074;SDS011;526;51.392;12.448;2023-04-15T00:04:16;3.03;;;2.83;;
1074;SDS011;526;51.392;12.448;2023-04-15T00:06:41;3.03;;;2.77;;
1074;SDS011;526;51.392;12.448;2023-04-15T00:09:07;1.87;;;1.77;;
1074;SDS011;526;51.392;12.448;2023-04-15T00:11:32;2.10;;;1.80;;
1074;SDS011;526;51.392;12.448;2023-04-15T00:13:58;1.97;;;1.80;;
1074;SDS011;526;51.392;12.448;2023-04-15T00:16:24;2.80;;;2.60;;
1074;SDS011;526;51.392;12.448;2023-04-15T00:18:52;3.63;;;2.20;;
1074;SDS011;526;51.392;12.448;2023-04-15T00:21:17;2.30;;;1.97;;
1074;SDS011;526;51.392;12.448;2023-04-15T00:23:43;2.40;;;2.20;;
1074;SDS011;526;51.392;12.448;2023-04-15T00:26:09;3.23;;;2.07;;
1074;SDS011;526;51.392;12.448;2023-04-15T00:28:34;4.10;;;2.50;;
1074;SDS011;526;51.392;12.448;2023-04-15T00:31:00;1.80;;;1.70;;
1074;SDS011;526;51.392;12.448;2023-04-15T00:33:25;2.73;;;2.53;;
1074;SDS011;526;51.392;12.448;2023-04-15T00:35:51;4.33;;;2.37;;
1074;SDS011;526;51.392;12.448;2023-04-15T00:38:17;1.30;;;1.20;;
1074;SDS011;526;51.392;12.448;2023-04-15T00:40:43;1.57;;;1.40;;
1074;SDS011;526;51.392;12.448;2023-04-15T00:43:09;23.27;;;2.23;;
1074;SDS011;526;51.392;12.448;2023-04-15T00:45:34;3.23;;;1.73;;
1074;SDS011;526;51.392;12.448;2023-04-15T00:48:00;2.57;;;2.37;;
1074;SDS011;526;51.392;12.448;2023-04-15T00:50:26;1.93;;;1.80;;
1074;SDS011;526;51.392;12.448;2023-04-15T00:52:51;1.60;;;1.50;;
1074;SDS011;526;51.392;12.448;2023-04-15T00:55:17;4.27;;;1.53;;
1074;SDS011;526;51.392;12.448;2023-04-15T00:57:43;3.10;;;1.70;;
1074;SDS011;526;51.392;12.448;2023-04-15T01:00:09;3.53;;;2.57;;
1074;SDS011;526;51.392;12.448;2023-04-15T01:02:38;2.00;;;1.90;;
1074;SDS011;526;51.392;12.448;2023-04-15T01:05:12;2.90;;;2.70;;
1074;SDS011;526;51.392;12.448;2023-04-15T01:07:47;2.37;;;2.17;;
1074;SDS011;526;51.392;12.448;2023-04-15T01:10:13;10.53;;;2.67;;
1074;SDS011;526;51.392;12.448;2023-04-15T01:12:39;1.50;;;1.40;;
1074;SDS011;526;51.392;12.448;2023-04-15T01:15:04;5.13;;;2.40;;
1074;SDS011;526;51.392;12.448;2023-04-15T01:17:37;3.33;;;2.57;;
1074;SDS011;526;51.392;12.448;2023-04-15T01:20:06;5.83;;;4.10;;
1074;SDS011;526;51.392;12.448;2023-04-15T01:22:36;4.07;;;2.80;;
1074;SDS011;526;51.392;12.448;2023-04-15T01:25:05;5.77;;;4.13;;
1074;SDS011;526;51.392;12.448;2023-04-15T01:27:36;3.63;;;2.80;;
1074;SDS011;526;51.392;12.448;2023-04-15T01:30:10;3.77;;;3.57;;
1074;SDS011;526;51.392;12.448;2023-04-15T01:32:38;2.77;;;2.40;;
1074;SDS011;526;51.392;12.448;2023-04-15T01:35:04;3.53;;;3.33;;
1074;SDS011;526;51.392;12.448;2023-04-15T01:37:29;1.37;;;1.30;;
1074;SDS011;526;51.392;12.448;2023-04-15T01:39:56;4.97;;;2.60;;
1074;SDS011;526;51.392;12.448;2023-04-15T01:42:24;3.60;;;2.40;;
1074;SDS011;526;51.392;12.448;2023-04-15T01:44:57;5.43;;;2.30;;
1074;SDS011;526;51.392;12.448;2023-04-15T01:47:33;3.47;;;2.37;;
1074;SDS011;526;51.392;12.448;2023-04-15T01:49:59;2.97;;;2.07;;
1074;SDS011;526;51.392;12.448;2023-04-15T01:52:25;3.70;;;2.60;;
1074;SDS011;526;51.392;12.448;2023-04-15T01:54:59;3.90;;;3.40;;
1074;SDS011;526;51.392;12.448;2023-04-15T01:57:27;11.70;;;2.50;;
1074;SDS011;526;51.392;12.448;2023-04-15T01:59:53;1.67;;;1.57;;
1074;SDS011;526;51.392;12.448;2023-04-15T02:02:18;1.50;;;1.40;;
1074;SDS011;526;51.392;12.448;2023-04-15T02:04:46;6.07;;;2.43;;
1074;SDS011;526;51.392;12.448;2023-04-15T02:07:15;1.77;;;1.70;;
1074;SDS011;526;51.392;12.448;2023-04-15T02:09:41;1.97;;;1.87;;
1074;SDS011;526;51.392;12.448;2023-04-15T02:12:08;2.80;;;1.83;;
1074;SDS011;526;51.392;12.448;2023-04-15T02:14:33;2.60;;;1.90;;
1074;SDS011;526;51.392;12.448;2023-04-15T02:17:01;4.00;;;2.70;;
1074;SDS011;526;51.392;12.448;2023-04-15T02:19:31;2.53;;;2.33;;
1074;SDS011;526;51.392;12.448;2023-04-15T02:22:00;1.93;;;1.80;;
1074;SDS011;526;51.392;12.448;2023-04-15T02:24:26;1.27;;;1.17;;
1074;SDS011;526;51.392;12.448;2023-04-15T02:26:56;1.47;;;1.43;;
1074;SDS011;526;51.392;12.448;2023-04-15T02:29:22;7.80;;;3.83;;
1074;SDS011;526;51.392;12.448;2023-04-15T02:31:47;1.50;;;1.40;;
1074;SDS011;526;51.392;12.448;2023-04-15T02:34:13;2.57;;;1.57;;
1074;SDS011;526;51.392;12.448;2023-04-15T02:36:46;2.27;;;2.10;;
1074;SDS011;526;51.392;12.448;2023-04-15T02:39:18;1.30;;;1.20;;
1074;SDS011;526;51.392;12.448;2023-04-15T02:41:44;2.03;;;1.57;;
1074;SDS011;526;51.392;12.448;2023-04-15T02:44:18;4.03;;;2.40;;
1074;SDS011;526;51.392;12.448;2023-04-15T02:46:44;1.63;;;1.53;;
1074;SDS011;526;51.392;12.448;2023-04-15T02:49:16;2.00;;;1.20;;
1074;SDS011;526;51.392;12.448;2023-04-15T02:51:42;4.00;;;2.23;;
1074;SDS011;526;51.392;12.448;2023-04-15T02:54:18;2.30;;;2.10;;
1074;SDS011;526;51.392;12.448;2023-04-15T02:56:45;3.67;;;2.67;;
1074;SDS011;526;51.392;12.448;2023-04-15T02:59:11;11.53;;;2.50;;
1074;SDS011;526;51.392;12.448;2023-04-15T03:01:39;2.20;;;1.90;;
1074;SDS011;526;51.392;12.448;2023-04-15T03:04:07;2.60;;;2.20;;
1074;SDS011;526;51.392;12.448;2023-04-15T03:06:33;2.40;;;1.97;;
1074;SDS011;526;51.392;12.448;2023-04-15T03:08:59;1.70;;;1.60;;
1074;SDS011;526;51.392;12.448;2023-04-15T03:11:26;2.23;;;2.03;;
1074;SDS011;526;51.392;12.448;2023-04-15T03:13:52;1.63;;;1.40;;
1074;SDS011;526;51.392;12.448;2023-04-15T03:16:18;8.13;;;3.97;;
1074;SDS011;526;51.392;12.448;2023-04-15T03:18:43;3.03;;;2.03;;
1074;SDS011;526;51.392;12.448;2023-04-15T03:21:09;3.00;;;1.70;;
1074;SDS011;526;51.392;12.448;2023-04-15T03:23:34;4.00;;;3.77;;
1074;SDS011;526;51.392;12.448;2023-04-15T03:26:03;2.67;;;2.47;;
1074;SDS011;526;51.392;12.448;2023-04-15T03:28:29;2.10;;;1.60;;
1074;SDS011;526;51.392;12.448;2023-04-15T03:30:55;2.40;;;2.20;;
1074;SDS011;526;51.392;12.448;2023-04-15T03:33:21;1.63;;;1.53;;
1074;SDS011;526;51.392;12.448;2023-04-15T03:35:46;6.47;;;2.50;;
1074;SDS011;526;51.392;12.448;2023-04-15T03:38:18;2.37;;;2.20;;
1074;SDS011;526;51.392;12.448;2023-04-15T03:40:44;2.47;;;2.33;;
1074;SDS011;526;51.392;12.448;2023-04-15T03:43:12;2.03;;;1.77;;
1074;SDS011;526;51.392;12.448;2023-04-15T03:45:45;2.10;;;1.97;;
1074;SDS011;526;51.392;12.448;2023-04-15T03:48:14;2.30;;;2.13;;
1074;SDS011;526;51.392;12.448;2023-04-15T03:50:45;1.63;;;1.53;;
1074;SDS011;526;51.392;12.448;2023-04-15T03:53:12;1.80;;;1.70;;
1074;SDS011;526;51.392;12.448;2023-04-15T03:55:38;1.57;;;1.53;;
1074;SDS011;526;51.392;12.448;2023-04-15T03:58:04;2.10;;;1.37;;
1074;SDS011;526;51.392;12.448;2023-04-15T04:00:29;1.63;;;1.30;;
1074;SDS011;526;51.392;12.448;2023-04-15T04:02:55;2.80;;;2.60;;
1074;SDS011;526;51.392;12.448;2023-04-15T04:05:21;1.53;;;1.37;;
1074;SDS011;526;51.392;12.448;2023-04-15T04:07:46;3.23;;;2.70;;
1074;SDS011;526;51.392;12.448;2023-04-15T04:10:11;1.23;;;1.20;;
1074;SDS011;526;51.392;12.448;2023-04-15T04:12:40;3.80;;;2.20;;
1074;SDS011;526;51.392;12.448;2023-04-15T04:15:06;1.80;;;1.70;;
1074;SDS011;526;51.392;12.448;2023-04-15T04:17:34;1.60;;;1.53;;
1074;SDS011;526;51.392;12.448;2023-04-15T04:20:11;1.77;;;1.47;;
1074;SDS011;526;51.392;12.448;2023-04-15T04:22:39;1.10;;;1.00;;
1074;SDS011;526;51.392;12.448;2023-04-15T04:25:06;2.30;;;2.10;;
1074;SDS011;526;51.392;12.448;2023-04-15T04:27:35;1.90;;;1.30;;
1074;SDS011;526;51.392;12.448;2023-04-15T04:30:03;3.90;;;1.37;;
1074;SDS011;526;51.392;12.448;2023-04-15T04:32:32;3.90;;;1.40;;
1074;SDS011;526;51.392;12.448;2023-04-15T04:35:00;2.43;;;2.23;;
1074;SDS011;526;51.392;12.448;2023-04-15T04:37:35;1.67;;;1.57;;
1074;SDS011;526;51.392;12.448;2023-04-15T04:40:08;2.60;;;2.33;;
1074;SDS011;526;51.392;12.448;2023-04-15T04:42:37;2.57;;;1.50;;
1074;SDS011;526;51.392;12.448;2023-04-15T04:45:08;2.50;;;2.07;;
1074;SDS011;526;51.392;12.448;2023-04-15T04:47:40;2.30;;;1.60;;
1074;SDS011;526;51.392;12.448;2023-04-15T04:50:06;1.50;;;1.40;;
1074;SDS011;526;51.392;12.448;2023-04-15T04:52:39;1.60;;;1.50;;
1074;SDS011;526;51.392;12.448;2023-04-15T04:55:05;2.97;;;2.20;;
1074;SDS011;526;51.392;12.448;2023-04-15T04:57:41;1.00;;;0.90;;
1074;SDS011;526;51.392;12.448;2023-04-15T05:00:07;1.40;;;1.33;;
1074;SDS011;526;51.392;12.448;2023-04-15T05:02:35;2.10;;;1.93;;
1074;SDS011;526;51.392;12.448;2023-04-15T05:05:03;3.73;;;3.53;;
1074;SDS011;526;51.392;12.448;2023-04-15T05:07:35;2.50;;;1.97;;
1074;SDS011;526;51.392;12.448;2023-04-15T05:10:03;3.10;;;2.87;;
1074;SDS011;526;51.392;12.448;2023-04-15T05:12:32;1.20;;;1.13;;
1074;SDS011;526;51.392;12.448;2023-04-15T05:15:09;1.37;;;1.27;;
1074;SDS011;526;51.392;12.448;2023-04-15T05:17:35;2.73;;;1.70;;
1074;SDS011;526;51.392;12.448;2023-04-15T05:20:03;3.50;;;1.57;;
1074;SDS011;526;51.392;12.448;2023-04-15T05:22:31;2.40;;;2.20;;
1074;SDS011;526;51.392;12.448;2023-04-15T05:24:56;3.00;;;2.80;;
1074;SDS011;526;51.392;12.448;2023-04-15T05:27:22;7.27;;;2.60;;
1074;SDS011;526;51.392;12.448;2023-04-15T05:29:51;1.63;;;1.53;;
1074;SDS011;526;51.392;12.448;2023-04-15T05:32:24;3.80;;;2.10;;
1074;SDS011;526;51.392;12.448;2023-04-15T05:34:53;1.37;;;1.27;;
1074;SDS011;526;51.392;12.448;2023-04-15T05:37:30;1.77;;;1.77;;
1074;SDS011;526;51.392;12.448;2023-04-15T05:40:01;1.53;;;1.43;;
1074;SDS011;526;51.392;12.448;2023-04-15T05:42:32;2.63;;;2.47;;
1074;SDS011;526;51.392;12.448;2023-04-15T05:44:58;2.63;;;2.43;;
1074;SDS011;526;51.392;12.448;2023-04-15T05:47:32;2.87;;;2.67;;
1074;SDS011;526;51.392;12.448;2023-04-15T05:50:00;2.73;;;2.20;;
1074;SDS011;526;51.392;12.448;2023-04-15T05:52:26;4.33;;;2.43;;
1074;SDS011;526;51.392;12.448;2023-04-15T05:54:51;3.17;;;2.97;;
1074;SDS011;526;51.392;12.448;2023-04-15T05:57:17;3.30;;;1.37;;
1074;SDS011;526;51.392;12.448;2023-04-15T05:59:42;7.17;;;2.90;;
1074;SDS011;526;51.392;12.448;2023-04-15T06:02:08;1.97;;;1.60;;
1074;SDS011;526;51.392;12.448;2023-04-15T06:04:34;2.40;;;2.20;;
1074;SDS011;526;51.392;12.448;2023-04-15T06:07:00;1.30;;;1.20;;
1074;SDS011;526;51.392;12.448;2023-04-15T06:09:26;1.80;;;1.47;;
1074;SDS011;526;51.392;12.448;2023-04-15T06:11:52;3.60;;;1.33;;
1074;SDS011;526;51.392;12.448;2023-04-15T06:14:18;2.30;;;2.00;;
1074;SDS011;526;51.392;12.448;2023-04-15T06:16:44;2.33;;;2.13;;
1074;SDS011;526;51.392;12.448;2023-04-15T06:19:09;1.60;;;1.50;;
1074;SDS011;526;51.392;12.448;2023-04-15T06:21:36;2.13;;;1.97;;
1074;SDS011;526;51.392;12.448;2023-04-15T06:24:02;4.93;;;2.20;;
1074;SDS011;526;51.392;12.448;2023-04-15T06:26:27;2.80;;;2.30;;
1074;SDS011;526;51.392;12.448;2023-04-15T06:28:53;4.93;;;3.20;;
1074;SDS011;526;51.392;12.448;2023-04-15T06:31:19;2.07;;;1.70;;
1074;SDS011;526;51.392;12.448;2023-04-15T06:33:45;1.40;;;1.30;;
1074;SDS011;526;51.392;12.448;2023-04-15T06:36:10;3.23;;;3.07;;
1074;SDS011;526;51.392;12.448;2023-04-15T06:38:36;8.23;;;3.03;;
1074;SDS011;526;51.392;12.448;2023-04-15T06:41:02;5.00;;;2.83;;
1074;SDS011;526;51.392;12.448;2023-04-15T06:43:28;1.40;;;1.30;;
1074;SDS011;526;51.392;12.448;2023-04-15T06:45:53;3.30;;;2.90;;
1074;SDS011;526;51.392;12.448;2023-04-15T06:48:19;2.50;;;1.27;;
1074;SDS011;526;51.392;12.448;2023-04-15T06:50:44;2.90;;;1.30;;
1074;SDS011;526;51.392;12.448;2023-04-15T06:53:10;4.73;;;2.10;;
1074;SDS011;526;51.392;12.448;2023-04-15T06:55:35;3.23;;;2.17;;
1074;SDS011;526;51.392;12.448;2023-04-15T06:58:01;8.60;;;2.97;;
1074;SDS011;526;51.392;12.448;2023-04-15T07:00:26;4.40;;;2.63;;
1074;SDS011;526;51.392;12.448;2023-04-15T07:02:52;3.00;;;2.80;;
1074;SDS011;526;51.392;12.448;2023-04-15T07:05:19;3.13;;;2.93;;
1074;SDS011;526;51.392;12.448;2023-04-15T07:07:45;2.47;;;2.27;;
1074;SDS011;526;51.392;12.448;2023-04-15T07:10:10;1.53;;;1.50;;
1074;SDS011;526;51.392;12.448;2023-04-15T07:12:39;1.67;;;1.43;;
1074;SDS011;526;51.392;12.448;2023-04-15T07:15:08;1.67;;;1.57;;
1074;SDS011;526;51.392;12.448;2023-04-15T07:17:43;1.10;;;1.00;;
1074;SDS011;526;51.392;12.448;2023-04-15T07:20:16;1.87;;;1.70;;
1074;SDS011;526;51.392;12.448;2023-04-15T07:22:44;2.83;;;2.63;;
1074;SDS011;526;51.392;12.448;2023-04-15T07:25:22;4.27;;;3.43;;
1074;SDS011;526;51.392;12.448;2023-04-15T07:27:51;1.37;;;1.27;;
1074;SDS011;526;51.392;12.448;2023-04-15T07:30:19;5.23;;;2.57;;
1074;SDS011;526;51.392;12.448;2023-04-15T07:32:45;1.30;;;1.20;;
1074;SDS011;526;51.392;12.448;2023-04-15T07:35:21;4.87;;;1.93;;
1074;SDS011;526;51.392;12.448;2023-04-15T07:37:49;2.90;;;2.30;;
1074;SDS011;526;51.392;12.448;2023-04-15T07:40:16;6.07;;;4.53;;
1074;SDS011;526;51.392;12.448;2023-04-15T07:42:44;2.13;;;1.97;;
1074;SDS011;526;51.392;12.448;2023-04-15T07:45:15;1.80;;;1.70;;
1074;SDS011;526;51.392;12.448;2023-04-15T07:47:44;6.80;;;3.70;;
1074;SDS011;526;51.392;12.448;2023-04-15T07:50:19;1.57;;;1.43;;
1074;SDS011;526;51.392;12.448;2023-04-15T07:52:48;2.80;;;2.60;;
1074;SDS011;526;51.392;12.448;2023-04-15T07:55:14;4.57;;;2.37;;
1074;SDS011;526;51.392;12.448;2023-04-15T07:57:49;2.90;;;2.33;;
1074;SDS011;526;51.392;12.448;2023-04-15T08:00:20;2.27;;;2.07;;
1074;SDS011;526;51.392;12.448;2023-04-15T08:02:46;3.80;;;3.13;;
1074;SDS011;526;51.392;12.448;2023-04-15T08:05:19;1.60;;;1.50;;
1074;SDS011;526;51.392;12.448;2023-04-15T08:07:45;1.33;;;1.23;;
1074;SDS011;526;51.392;12.448;2023-04-15T08:10:20;3.43;;;3.23;;
1074;SDS011;526;51.392;12.448;2023-04-15T08:12:49;2.80;;;2.30;;
1074;SDS011;526;51.392;12.448;2023-04-15T08:15:21;1.70;;;1.63;;
1074;SDS011;526;51.392;12.448;2023-04-15T08:17:47;4.40;;;3.33;;
1074;SDS011;526;51.392;12.448;2023-04-15T08:20:15;3.40;;;2.43;;
1074;SDS011;526;51.392;12.448;2023-04-15T08:22:43;3.83;;;3.63;;
1074;SDS011;526;51.392;12.448;2023-04-15T08:25:11;4.80;;;3.13;;
1074;SDS011;526;51.392;12.448;2023-04-15T08:27:37;5.50;;;2.73;;
1074;SDS011;526;51.392;12.448;2023-04-15T08:30:07;4.10;;;2.43;;
1074;SDS011;526;51.392;12.448;2023-04-15T08:32:33;3.30;;;2.67;;
1074;SDS011;526;51.392;12.448;2023-04-15T08:34:59;3.47;;;2.60;;
1074;SDS011;526;51.392;12.448;2023-04-15T08:37:25;4.90;;;3.87;;
1074;SDS011;526;51.392;12.448;2023-04-15T08:39:53;4.47;;;1.90;;
1074;SDS011;526;51.392;12.448;2023-04-15T08:42:22;9.60;;;5.13;;
1074;SDS011;526;51.392;12.448;2023-04-15T08:44:54;6.50;;;2.90;;
1074;SDS011;526;51.392;12.448;2023-04-15T08:47:20;2.60;;;2.40;;
1074;SDS011;526;51.392;12.448;2023-04-15T08:49:48;3.10;;;2.27;;
1074;SDS011;526;51.392;12.448;2023-04-15T08:52:18;6.33;;;4.10;;
1074;SDS011;526;51.392;12.448;2023-04-15T08:54:44;4.73;;;3.00;;
1074;SDS011;526;51.392;12.448;2023-04-15T08:57:11;9.83;;;2.80;;
1074;SDS011;526;51.392;12.448;2023-04-15T08:59:38;6.07;;;2.43;;
1074;SDS011;526;51.392;12.448;2023-04-15T09:02:05;3.57;;;2.60;;
1074;SDS011;526;51.392;12.448;2023-04-15T09:04:31;3.70;;;3.20;;
1074;SDS011;526;51.392;12.448;2023-04-15T09:06:57;5.37;;;3.10;;
1074;SDS011;526;51.392;12.448;2023-04-15T09:09:23;4.43;;;3.10;;
1074;SDS011;526;51.392;12.448;2023-04-15T09:11:55;2.30;;;2.10;;
1074;SDS011;526;51.392;12.448;2023-04-15T09:14:23;6.60;;;3.90;;
1074;SDS011;526;51.392;12.448;2023-04-15T09:16:55;5.50;;;3.00;;
1074;SDS011;526;51.392;12.448;2023-04-15T09:19:24;3.17;;;2.93;;
1074;SDS011;526;51.392;12.448;2023-04-15T09:21:51;3.37;;;3.17;;
1074;SDS011;526;51.392;12.448;2023-04-15T09:24:20;9.97;;;5.27;;
1074;SDS011;526;51.392;12.448;2023-04-15T09:26:46;2.90;;;2.60;;
1074;SDS011;526;51.392;12.448;2023-04-15T09:29:12;7.13;;;4.20;;
1074;SDS011;526;51.392;12.448;2023-04-15T09:31:40;2.87;;;2.50;;
1074;SDS011;526;51.392;12.448;2023-04-15T09:34:09;9.73;;;3.43;;
1074;SDS011;526;51.392;12.448;2023-04-15T09:36:37;6.67;;;4.67;;
1074;SDS011;526;51.392;12.448;2023-04-15T09:39:11;7.67;;;4.93;;
1074;SDS011;526;51.392;12.448;2023-04-15T09:41:37;8.80;;;5.20;;
1074;SDS011;526;51.392;12.448;2023-04-15T09:44:05;2.60;;;2.40;;
1074;SDS011;526;51.392;12.448;2023-04-15T09:47:00;6.07;;;4.40;;
1074;SDS011;526;51.392;12.448;2023-04-15T09:49:28;5.00;;;3.43;;
1074;SDS011;526;51.392;12.448;2023-04-15T09:51:59;4.50;;;3.33;;
1074;SDS011;526;51.392;12.448;2023-04-15T09:54:32;5.87;;;5.57;;
1074;SDS011;526;51.392;12.448;2023-04-15T09:57:03;8.03;;;4.70;;
1074;SDS011;526;51.392;12.448;2023-04-15T09:59:30;5.60;;;3.77;;
1074;SDS011;526;51.392;12.448;2023-04-15T10:01:55;8.00;;;3.90;;
1074;SDS011;526;51.392;12.448;2023-04-15T10:04:24;8.30;;;6.63;;
1074;SDS011;526;51.392;12.448;2023-04-15T10:06:53;7.80;;;4.67;;
1074;SDS011;526;51.392;12.448;2023-04-15T10:09:19;10.30;;;6.87;;
1074;SDS011;526;51.392;12.448;2023-04-15T10:11:45;9.03;;;4.80;;
1074;SDS011;526;51.392;12.448;2023-04-15T10:14:13;8.63;;;4.60;;
1074;SDS011;526;51.392;12.448;2023-04-15T10:16:40;11.73;;;5.80;;
1074;SDS011;526;51.392;12.448;2023-04-15T10:19:07;10.03;;;7.37;;
1074;SDS011;526;51.392;12.448;2023-04-15T10:21:34;11.27;;;5.33;;
1074;SDS011;526;51.392;12.448;2023-04-15T10:24:01;6.60;;;4.13;;
1074;SDS011;526;51.392;12.448;2023-04-15T10:26:28;8.33;;;6.00;;
1074;SDS011;526;51.392;12.448;2023-04-15T10:28:54;5.20;;;4.53;;
1074;SDS011;526;51.392;12.448;2023-04-15T10:31:21;6.07;;;4.27;;
1074;SDS011;526;51.392;12.448;2023-04-15T10:33:47;6.70;;;5.10;;
1074;SDS011;526;51.392;12.448;2023-04-15T10:36:13;14.80;;;6.93;;
1074;SDS011;526;51.392;12.448;2023-04-15T10:38:40;8.90;;;5.43;;
1074;SDS011;526;51.392;12.448;2023-04-15T10:41:22;11.93;;;4.10;;
1074;SDS011;526;51.392;12.448;2023-04-15T10:43:54;18.03;;;7.03;;
1074;SDS011;526;51.392;12.448;2023-04-15T10:46:34;6.70;;;4.60;;
1074;SDS011;526;51.392;12.448;2023-04-15T10:51:53;12.03;;;6.40;;
1074;SDS011;526;51.392;12.448;2023-04-15T10:56:51;5.90;;;3.80;;
1074;SDS011;526;51.392;12.448;2023-04-15T10:59:31;6.77;;;4.40;;
1074;SDS011;526;51.392;12.448;2023-04-15T11:02:00;3.10;;;2.90;;
1074;SDS011;526;51.392;12.448;2023-04-15T11:07:37;9.13;;;4.57;;
1074;SDS011;526;51.392;12.448;2023-04-15T11:12:45;5.27;;;4.67;;
1074;SDS011;526;51.392;12.448;2023-04-15T11:15:24;13.00;;;7.07;;
1074;SDS011;526;51.392;12.448;2023-04-15T11:17:56;8.27;;;4.90;;
1074;SDS011;526;51.392;12.448;2023-04-15T11:20:23;3.67;;;3.37;;
1074;SDS011;526;51.392;12.448;2023-04-15T11:22:49;3.97;;;3.73;;
1074;SDS011;526;51.392;12.448;2023-04-15T11:25:23;3.10;;;2.90;;
1074;SDS011;526;51.392;12.448;2023-04-15T11:27:53;2.00;;;1.90;;
1074;SDS011;526;51.392;12.448;2023-04-15T11:30:20;5.23;;;4.87;;
1074;SDS011;526;51.392;12.448;2023-04-15T11:32:53;4.60;;;4.30;;
1074;SDS011;526;51.392;12.448;2023-04-15T11:35:22;4.13;;;3.80;;
1074;SDS011;526;51.392;12.448;2023-04-15T11:37:48;3.23;;;3.03;;
1074;SDS011;526;51.392;12.448;2023-04-15T11:40:14;2.30;;;2.10;;
1074;SDS011;526;51.392;12.448;2023-04-15T11:42:41;3.67;;;2.90;;
1074;SDS011;526;51.392;12.448;2023-04-15T11:45:08;3.17;;;2.90;;
1074;SDS011;526;51.392;12.448;2023-04-15T11:47:36;8.70;;;4.07;;
1074;SDS011;526;51.392;12.448;2023-04-15T11:50:18;4.90;;;4.17;;
1074;SDS011;526;51.392;12.448;2023-04-15T11:52:58;2.90;;;1.97;;
1074;SDS011;526;51.392;12.448;2023-04-15T11:55:25;3.47;;;2.90;;
1074;SDS011;526;51.392;12.448;2023-04-15T11:58:10;5.17;;;4.30;;
1074;SDS011;526;51.392;12.448;2023-04-15T12:00:42;2.43;;;2.20;;
1074;SDS011;526;51.392;12.448;2023-04-15T12:08:55;6.50;;;2.60;;
1074;SDS011;526;51.392;12.448;2023-04-15T12:11:28;4.20;;;2.90;;
1074;SDS011;526;51.392;12.448;2023-04-15T12:13:56;6.27;;;4.00;;
1074;SDS011;526;51.392;12.448;2023-04-15T12:16:23;4.47;;;2.90;;
1074;SDS011;526;51.392;12.448;2023-04-15T12:18:52;2.27;;;1.80;;
1074;SDS011;526;51.392;12.448;2023-04-15T12:21:23;4.00;;;2.50;;
1074;SDS011;526;51.392;12.448;2023-04-15T12:23:50;5.20;;;2.87;;
1074;SDS011;526;51.392;12.448;2023-04-15T12:27:06;3.73;;;2.23;;
1074;SDS011;526;51.392;12.448;2023-04-15T12:29:11;2.80;;;2.37;;
1074;SDS011;526;51.392;12.448;2023-04-15T12:34:50;4.00;;;2.10;;
1074;SDS011;526;51.392;12.448;2023-04-15T12:37:18;2.20;;;2.03;;
1074;SDS011;526;51.392;12.448;2023-04-15T12:39:45;1.90;;;1.80;;
1074;SDS011;526;51.392;12.448;2023-04-15T12:42:13;2.73;;;2.53;;
1074;SDS011;526;51.392;12.448;2023-04-15T12:44:39;4.97;;;3.50;;
1074;SDS011;526;51.392;12.448;2023-04-15T12:47:05;6.23;;;3.63;;
1074;SDS011;526;51.392;12.448;2023-04-15T12:49:32;2.40;;;2.23;;
1074;SDS011;526;51.392;12.448;2023-04-15T12:51:59;2.77;;;2.50;;
1074;SDS011;526;51.392;12.448;2023-04-15T12:54:25;2.70;;;2.30;;
1074;SDS011;526;51.392;12.448;2023-04-15T12:56:51;2.00;;;1.93;;
1074;SDS011;526;51.392;12.448;2023-04-15T12:59:18;2.00;;;1.80;;
1074;SDS011;526;51.392;12.448;2023-04-15T13:01:44;3.57;;;3.37;;
1074;SDS011;526;51.392;12.448;2023-04-15T13:04:10;1.87;;;1.77;;
1074;SDS011;526;51.392;12.448;2023-04-15T13:06:36;3.50;;;3.13;;
1074;SDS011;526;51.392;12.448;2023-04-15T13:09:02;2.97;;;2.77;;
1074;SDS011;526;51.392;12.448;2023-04-15T13:11:28;3.20;;;1.97;;
1074;SDS011;526;51.392;12.448;2023-04-15T13:13:58;2.90;;;2.23;;
1074;SDS011;526;51.392;12.448;2023-04-15T13:16:27;3.23;;;2.57;;
1074;SDS011;526;51.392;12.448;2023-04-15T13:18:53;1.60;;;1.57;;
1074;SDS011;526;51.392;12.448;2023-04-15T13:21:18;1.87;;;1.77;;
1074;SDS011;526;51.392;12.448;2023-04-15T13:23:44;2.50;;;1.60;;
1074;SDS011;526;51.392;12.448;2023-04-15T13:26:10;2.37;;;2.17;;
1074;SDS011;526;51.392;12.448;2023-04-15T13:28:36;2.17;;;2.03;;
1074;SDS011;526;51.392;12.448;2023-04-15T13:31:02;2.10;;;1.50;;
1074;SDS011;526;51.392;12.448;2023-04-15T13:33:27;2.13;;;1.97;;
1074;SDS011;526;51.392;12.448;2023-04-15T13:35:53;1.70;;;1.63;;
1074;SDS011;526;51.392;12.448;2023-04-15T13:38:18;3.27;;;2.23;;
1074;SDS011;526;51.392;12.448;2023-04-15T13:40:44;1.83;;;1.73;;
1074;SDS011;526;51.392;12.448;2023-04-15T13:43:09;5.13;;;2.03;;
1074;SDS011;526;51.392;12.448;2023-04-15T13:45:35;4.23;;;3.03;;
1074;SDS011;526;51.392;12.448;2023-04-15T13:48:01;1.53;;;1.50;;
1074;SDS011;526;51.392;12.448;2023-04-15T13:50:27;1.53;;;1.43;;
1074;SDS011;526;51.392;12.448;2023-04-15T13:52:52;1.97;;;1.87;;
1074;SDS011;526;51.392;12.448;2023-04-15T13:55:18;5.60;;;2.90;;
1074;SDS011;526;51.392;12.448;2023-04-15T13:57:43;1.87;;;1.77;;
1074;SDS011;526;51.392;12.448;2023-04-15T14:00:10;1.80;;;1.53;;
1074;SDS011;526;51.392;12.448;2023-04-15T14:02:35;1.50;;;1.40;;
1074;SDS011;526;51.392;12.448;2023-04-15T14:05:01;3.17;;;2.27;;
1074;SDS011;526;51.392;12.448;2023-04-15T14:07:28;1.53;;;1.43;;
1074;SDS011;526;51.392;12.448;2023-04-15T14:09:54;2.30;;;2.10;;
1074;SDS011;526;51.392;12.448;2023-04-15T14:12:20;1.97;;;1.57;;
1074;SDS011;526;51.392;12.448;2023-04-15T14:14:45;2.80;;;2.17;;
1074;SDS011;526;51.392;12.448;2023-04-15T14:17:11;3.67;;;2.23;;
1074;SDS011;526;51.392;12.448;2023-04-15T14:19:36;1.50;;;1.40;;
1074;SDS011;526;51.392;12.448;2023-04-15T14:22:02;3.17;;;2.10;;
1074;SDS011;526;51.392;12.448;2023-04-15T14:24:27;2.03;;;1.80;;
1074;SDS011;526;51.392;12.448;2023-04-15T14:26:53;1.30;;;1.20;;
1074;SDS011;526;51.392;12.448;2023-04-15T14:29:19;2.10;;;1.57;;
1074;SDS011;526;51.392;12.448;2023-04-15T14:31:44;2.20;;;2.00;;
1074;SDS011;526;51.392;12.448;2023-04-15T14:34:10;1.83;;;1.73;;
1074;SDS011;526;51.392;12.448;2023-04-15T14:36:36;2.00;;;1.83;;
1074;SDS011;526;51.392;12.448;2023-04-15T14:39:02;2.10;;;1.80;;
1074;SDS011;526;51.392;12.448;2023-04-15T14:41:28;1.27;;;1.17;;
1074;SDS011;526;51.392;12.448;2023-04-15T14:43:53;1.83;;;1.70;;
1074;SDS011;526;51.392;12.448;2023-04-15T14:46:19;1.40;;;1.30;;
1074;SDS011;526;51.392;12.448;2023-04-15T14:48:44;1.43;;;1.30;;
1074;SDS011;526;51.392;12.448;2023-04-15T14:51:10;1.60;;;1.50;;
1074;SDS011;526;51.392;12.448;2023-04-15T14:53:35;1.70;;;1.60;;
1074;SDS011;526;51.392;12.448;2023-04-15T14:56:01;1.43;;;1.33;;
1074;SDS011;526;51.392;12.448;2023-04-15T14:58:26;3.60;;;2.03;;
1074;SDS011;526;51.392;12.448;2023-04-15T15:00:52;2.17;;;2.00;;
1074;SDS011;526;51.392;12.448;2023-04-15T15:03:17;2.47;;;2.27;;
1074;SDS011;526;51.392;12.448;2023-04-15T15:05:44;1.67;;;1.60;;
1074;SDS011;526;51.392;12.448;2023-04-15T15:08:11;1.30;;;1.20;;
1074;SDS011;526;51.392;12.448;2023-04-15T15:10:37;2.00;;;1.90;;
1074;SDS011;526;51.392;12.448;2023-04-15T15:13:04;3.17;;;2.17;;
1074;SDS011;526;51.392;12.448;2023-04-15T15:15:31;4.40;;;3.07;;
1074;SDS011;526;51.392;12.448;2023-04-15T15:17:57;1.87;;;1.77;;
1074;SDS011;526;51.392;12.448;2023-04-15T15:20:23;1.80;;;1.70;;
1074;SDS011;526;51.392;12.448;2023-04-15T15:22:48;2.37;;;2.17;;
1074;SDS011;526;51.392;12.448;2023-04-15T15:25:14;2.07;;;1.93;;
1074;SDS011;526;51.392;12.448;2023-04-15T15:28:02;1.53;;;1.47;;
1074;SDS011;526;51.392;12.448;2023-04-15T15:36:51;2.03;;;1.83;;
1074;SDS011;526;51.392;12.448;2023-04-15T15:39:42;2.70;;;2.43;;
1074;SDS011;526;51.392;12.448;2023-04-15T15:42:11;4.27;;;3.00;;
1074;SDS011;526;51.392;12.448;2023-04-15T15:44:40;2.90;;;2.70;;
1074;SDS011;526;51.392;12.448;2023-04-15T15:47:12;2.47;;;2.33;;